createdAt,value
2019-01-08T00:02:02.785Z,40.48
2019-01-08T00:04:17.161Z,40.39
2019-01-08T00:06:30.862Z,40.47
2019-01-08T00:08:47.256Z,40.59
2019-01-08T00:10:59.360Z,40.63
2019-01-08T00:13:26.766Z,40.71
2019-01-08T00:15:30.300Z,40.70
2019-01-08T00:17:44.145Z,40.57
2019-01-08T00:20:05.368Z,40.78
2019-01-08T00:23:13.070Z,41.21
2019-01-08T00:25:20.650Z,41.39
2019-01-08T00:28:13.298Z,41.33
2019-01-08T00:30:29.425Z,41.64
2019-01-08T00:33:19.911Z,41.42
2019-01-08T00:35:28.666Z,41.53
2019-01-08T00:37:40.797Z,40.76
2019-01-08T00:39:50.108Z,41.46
2019-01-08T00:42:01.416Z,41.39
2019-01-08T00:46:39.991Z,41.30
2019-01-08T00:48:51.519Z,41.19
2019-01-08T00:51:03.080Z,41.20
2019-01-08T00:53:16.884Z,41.37
2019-01-08T00:55:26.697Z,41.43
2019-01-08T01:00:16.551Z,40.82
2019-01-08T01:02:34.347Z,40.94
2019-01-08T01:04:46.353Z,41.30
2019-01-08T01:07:01.961Z,40.73
2019-01-08T01:09:20.490Z,41.25
2019-01-08T01:11:32.915Z,41.42
2019-01-08T01:13:45.836Z,40.96
2019-01-08T01:15:54.340Z,40.99
2019-01-08T01:18:06.992Z,41.10
2019-01-08T01:20:25.123Z,41.12
2019-01-08T01:22:44.271Z,41.17
2019-01-08T01:25:16.707Z,40.99
2019-01-08T01:27:42.539Z,41.43
2019-01-08T01:29:49.628Z,41.83
2019-01-08T01:31:56.990Z,40.01
2019-01-08T01:34:04.530Z,40.66
2019-01-08T01:36:19.705Z,42.96
2019-01-08T01:38:28.354Z,41.53
2019-01-08T01:40:44.800Z,41.40
2019-01-08T01:42:56.254Z,41.94
2019-01-08T01:45:14.450Z,39.44
2019-01-08T01:47:29.931Z,37.66
2019-01-08T01:49:49.503Z,37.12
2019-01-08T01:51:59.507Z,36.51
2019-01-08T01:54:11.439Z,35.71
2019-01-08T01:56:25.448Z,36.13
2019-01-08T01:58:38.331Z,35.24
2019-01-08T02:03:37.714Z,34.68
2019-01-08T02:05:39.100Z,35.80
2019-01-08T02:08:01.886Z,36.71
2019-01-08T02:10:12.134Z,37.29
2019-01-08T02:12:22.798Z,37.51
2019-01-08T02:14:39.023Z,37.89
2019-01-08T02:16:49.217Z,37.77
2019-01-08T02:18:58.935Z,38.16
2019-01-08T02:21:10.833Z,38.32
2019-01-08T02:25:29.506Z,38.28
2019-01-08T02:27:39.176Z,37.90
2019-01-08T02:29:51.011Z,37.91
2019-01-08T02:32:03.786Z,37.92
2019-01-08T02:34:13.936Z,37.85
2019-01-08T02:36:41.229Z,38.04
2019-01-08T02:38:49.558Z,38.04
2019-01-08T02:40:59.690Z,37.96
2019-01-08T02:43:10.078Z,37.92
2019-01-08T02:45:18.293Z,38.45
2019-01-08T02:47:27.838Z,38.24
2019-01-08T02:49:40.604Z,37.71
2019-01-08T02:51:54.561Z,38.41
2019-01-08T02:54:03.424Z,38.31
2019-01-08T02:56:19.840Z,38.46
2019-01-08T02:58:29.494Z,37.33
2019-01-08T03:00:39.338Z,38.24
2019-01-08T03:02:59.359Z,38.44
2019-01-08T03:05:11.054Z,37.66
2019-01-08T03:07:20.282Z,36.73
2019-01-08T03:09:46.843Z,36.60
2019-01-08T03:12:04.482Z,36.85
2019-01-08T03:14:17.762Z,36.56
2019-01-08T03:16:35.830Z,36.43
2019-01-08T03:18:55.159Z,36.43
2019-01-08T03:21:04.535Z,36.53
2019-01-08T03:23:20.980Z,36.76
2019-01-08T03:25:30.261Z,36.60
2019-01-08T03:27:39.534Z,36.38
2019-01-08T03:29:51.363Z,36.61
2019-01-08T03:32:01.912Z,36.49
2019-01-08T03:34:14.964Z,36.39
2019-01-08T03:36:41.611Z,36.46
2019-01-08T03:38:53.133Z,36.49
2019-01-08T03:41:05.774Z,36.56
2019-01-08T03:43:14.400Z,36.70
2019-01-08T03:45:27.634Z,36.64
2019-01-08T03:47:37.839Z,36.64
2019-01-08T03:55:00.791Z,36.22
2019-01-08T03:57:20.048Z,36.27
2019-01-08T03:59:41.734Z,36.22
2019-01-08T04:01:44.250Z,36.42
2019-01-08T04:03:56.228Z,37.04
2019-01-08T04:06:31.764Z,37.16
2019-01-08T04:08:45.802Z,37.61
2019-01-08T04:10:54.027Z,38.29
2019-01-08T04:13:53.845Z,37.59
2019-01-08T04:16:02.513Z,38.22
2019-01-08T04:18:12.248Z,38.62
2019-01-08T04:20:27.962Z,38.56
2019-01-08T04:22:40.991Z,38.79
2019-01-08T04:24:52.276Z,39.03
2019-01-08T04:27:17.280Z,38.88
2019-01-08T04:29:27.402Z,39.03
2019-01-08T04:31:37.616Z,39.31
2019-01-08T04:33:53.138Z,39.13
2019-01-08T04:36:02.635Z,38.72
2019-01-08T04:38:12.135Z,39.22
2019-01-08T04:40:21.398Z,39.47
2019-01-08T04:42:31.068Z,39.41
2019-01-08T04:44:41.523Z,39.69
2019-01-08T04:46:49.931Z,39.51
2019-01-08T04:49:00.496Z,40.08
2019-01-08T04:51:12.982Z,39.63
2019-01-08T04:53:21.119Z,39.51
2019-01-08T04:55:28.229Z,40.44
2019-01-08T04:57:40.637Z,39.06
2019-01-08T04:59:58.756Z,40.16
2019-01-08T05:02:01.371Z,39.52
2019-01-08T05:04:11.847Z,39.84
2019-01-08T05:06:23.085Z,39.93
2019-01-08T05:08:44.608Z,39.89
2019-01-08T05:11:53.998Z,39.62
2019-01-08T05:13:36.366Z,39.98
2019-01-08T05:15:43.537Z,39.16
2019-01-08T05:18:16.617Z,39.49
2019-01-08T05:20:30.783Z,39.82
2019-01-08T05:22:57.803Z,39.92
2019-01-08T05:25:19.904Z,39.86
2019-01-08T05:27:35.731Z,39.99
2019-01-08T05:29:47.723Z,39.93
2019-01-08T05:32:01.811Z,39.88
2019-01-08T05:34:25.682Z,39.94
2019-01-08T05:36:43.526Z,40.14
2019-01-08T05:39:00.622Z,39.92
2019-01-08T05:41:22.338Z,40.04
2019-01-08T05:43:38.376Z,39.91
2019-01-08T05:45:45.626Z,40.23
2019-01-08T05:48:18.943Z,40.18
2019-01-08T05:50:28.560Z,40.28
2019-01-08T05:52:44.805Z,40.13
2019-01-08T05:55:05.149Z,40.09
2019-01-08T05:58:46.522Z,40.11
2019-01-08T05:59:55.438Z,40.31
2019-01-08T06:03:09.543Z,40.12
2019-01-08T06:04:48.971Z,40.48
2019-01-08T06:06:57.730Z,40.18
2019-01-08T06:09:25.762Z,40.45
2019-01-08T06:11:44.090Z,40.28
2019-01-08T06:14:13.398Z,40.05
2019-01-08T06:16:31.502Z,40.18
2019-01-08T06:18:49.393Z,40.17
2019-01-08T06:21:11.890Z,40.38
2019-01-08T06:23:24.582Z,40.45
2019-01-08T06:25:32.046Z,40.38
2019-01-08T06:27:54.874Z,40.29
2019-01-08T06:30:06.923Z,40.17
2019-01-08T06:32:20.390Z,40.28
2019-01-08T06:34:38.295Z,40.51
2019-01-08T06:36:51.862Z,40.39
2019-01-08T06:39:09.576Z,40.30
2019-01-08T06:41:25.703Z,40.51
2019-01-08T06:43:39.693Z,40.17
2019-01-08T06:45:45.514Z,40.32
2019-01-08T06:48:36.847Z,40.58
2019-01-08T06:50:45.254Z,40.46
2019-01-08T06:52:58.829Z,40.40
2019-01-08T06:55:20.006Z,40.60
2019-01-08T06:57:41.974Z,40.64
2019-01-08T07:00:32.902Z,40.64
2019-01-08T07:02:41.010Z,40.75
2019-01-08T07:05:36.969Z,40.62
2019-01-08T07:06:58.590Z,40.82
2019-01-08T07:09:07.444Z,40.70
2019-01-08T07:11:27.544Z,40.60
2019-01-08T07:13:45.838Z,40.54
2019-01-08T07:15:53.233Z,40.77
2019-01-08T07:18:41.959Z,40.64
2019-01-08T07:20:55.708Z,40.72
2019-01-08T07:23:51.926Z,40.77
2019-01-08T07:26:07.848Z,40.80
2019-01-08T07:28:35.876Z,40.70
2019-01-08T07:31:14.211Z,40.82
2019-01-08T07:33:37.514Z,40.99
2019-01-08T07:35:45.263Z,40.62
2019-01-08T07:38:01.258Z,40.71
2019-01-08T07:42:50.898Z,40.64
2019-01-08T07:45:13.616Z,40.63
2019-01-08T07:47:31.693Z,40.91
2019-01-08T07:49:48.199Z,41.02
2019-01-08T07:51:55.765Z,40.70
2019-01-08T07:55:43.349Z,40.70
2019-01-08T07:57:03.517Z,40.99
2019-01-08T07:59:19.512Z,41.02
2019-01-08T08:01:33.420Z,40.82
2019-01-08T08:03:53.007Z,41.01
2019-01-08T08:06:10.904Z,40.87
2019-01-08T08:08:25.620Z,41.09
2019-01-08T08:11:30.251Z,40.51
2019-01-08T08:16:31.560Z,41.08
2019-01-08T08:18:44.691Z,41.06
2019-01-08T08:20:56.267Z,41.15
2019-01-08T08:23:33.213Z,41.10
2019-01-08T08:25:37.957Z,41.08
2019-01-08T08:27:54.091Z,41.08
2019-01-08T08:30:15.794Z,41.09
2019-01-08T08:32:58.680Z,41.27
2019-01-08T08:35:20.369Z,41.20
2019-01-08T08:37:45.697Z,41.12
2019-01-08T08:40:02.626Z,41.17
2019-01-08T08:42:11.026Z,41.03
2019-01-08T08:44:29.815Z,41.13
2019-01-08T08:46:37.274Z,41.17
2019-01-08T08:48:55.991Z,41.21
2019-01-08T08:51:07.246Z,41.27
2019-01-08T08:53:19.050Z,41.33
2019-01-08T08:55:26.549Z,41.19
2019-01-08T08:57:34.252Z,41.18
2019-01-08T08:59:57.047Z,41.20
2019-01-08T09:02:37.968Z,41.41
2019-01-08T09:05:22.208Z,41.38
2019-01-08T09:07:29.716Z,41.56
2019-01-08T09:09:41.893Z,41.51
2019-01-08T09:11:57.879Z,41.16
2019-01-08T09:14:31.071Z,40.44
2019-01-08T09:17:01.385Z,41.00
2019-01-08T09:24:26.459Z,41.01
2019-01-08T09:26:40.094Z,41.51
2019-01-08T09:31:15.074Z,41.16
2019-01-08T09:35:51.774Z,41.48
2019-01-08T09:37:59.629Z,41.75
2019-01-08T09:42:59.679Z,41.87
2019-01-08T09:45:14.303Z,41.58
2019-01-08T09:47:29.497Z,41.82
2019-01-08T09:49:55.544Z,41.69
2019-01-08T09:52:07.912Z,41.47
2019-01-08T09:54:44.832Z,41.71
2019-01-08T09:59:35.506Z,41.32
2019-01-08T10:01:43.411Z,41.59
2019-01-08T10:03:53.509Z,41.75
2019-01-08T10:11:29.049Z,41.33
2019-01-08T10:13:43.345Z,41.88
2019-01-08T10:15:51.336Z,41.75
2019-01-08T10:18:12.590Z,41.84
2019-01-08T10:20:23.874Z,42.16
2019-01-08T10:22:59.182Z,42.63
2019-01-08T10:25:16.347Z,41.61
2019-01-08T10:27:45.528Z,41.31
2019-01-08T10:30:00.029Z,41.14
2019-01-08T10:32:15.895Z,40.97
2019-01-08T10:34:27.736Z,41.60
2019-01-08T10:36:40.746Z,42.48
2019-01-08T10:38:52.565Z,42.12
2019-01-08T10:41:04.228Z,41.81
2019-01-08T10:43:18.647Z,42.04
2019-01-08T10:45:31.196Z,42.08
2019-01-08T10:50:52.782Z,42.22
2019-01-08T10:53:08.624Z,42.24
2019-01-08T10:55:20.993Z,42.39
2019-01-08T10:57:34.139Z,42.23
2019-01-08T10:59:52.349Z,42.34
2019-01-08T11:02:11.741Z,42.41
2019-01-08T11:04:34.334Z,42.29
2019-01-08T11:06:50.265Z,42.31
2019-01-08T11:09:07.394Z,42.50
2019-01-08T11:11:36.589Z,42.68
2019-01-08T11:13:53.622Z,42.57
2019-01-08T11:16:02.286Z,42.73
2019-01-08T11:18:19.231Z,42.80
2019-01-08T11:21:07.010Z,42.29
2019-01-08T11:23:31.378Z,42.09
2019-01-08T11:25:39.185Z,42.34
2019-01-08T11:27:58.091Z,42.61
2019-01-08T11:30:29.385Z,42.32
2019-01-08T11:32:44.836Z,42.90
2019-01-08T11:35:20.192Z,41.67
2019-01-08T11:40:26.676Z,41.48
2019-01-08T11:42:34.365Z,41.45
2019-01-08T11:44:54.929Z,41.32
2019-01-08T11:47:21.963Z,41.32
2019-01-08T11:49:39.336Z,41.21
2019-01-08T11:51:52.128Z,42.09
2019-01-08T11:54:09.218Z,42.11
2019-01-08T11:56:17.932Z,42.81
2019-01-08T11:58:59.837Z,42.53
2019-01-08T12:00:55.869Z,42.38
2019-01-08T12:03:31.492Z,42.92
2019-01-08T12:05:38.808Z,42.80
2019-01-08T12:07:58.307Z,42.86
2019-01-08T12:10:21.346Z,43.20
2019-01-08T12:12:43.101Z,42.97
2019-01-08T12:14:58.419Z,43.44
2019-01-08T12:17:16.486Z,43.15
2019-01-08T12:19:39.911Z,43.30
2019-01-08T12:21:47.349Z,43.05
2019-01-08T12:24:26.508Z,43.48
2019-01-08T12:26:34.474Z,42.84
2019-01-08T12:29:01.537Z,43.00
2019-01-08T12:31:07.725Z,42.98
2019-01-08T12:33:35.636Z,43.19
2019-01-08T12:35:42.707Z,43.05
2019-01-08T12:37:50.520Z,43.58
2019-01-08T12:42:42.170Z,41.99
2019-01-08T12:45:05.826Z,42.10
2019-01-08T12:47:20.782Z,41.94
2019-01-08T12:49:43.619Z,42.01
2019-01-08T12:52:30.748Z,41.97
2019-01-08T12:54:49.141Z,41.28
2019-01-08T12:57:01.912Z,41.29
2019-01-08T12:59:24.504Z,41.19
2019-01-08T13:01:33.165Z,40.63
2019-01-08T13:03:54.202Z,40.64
2019-01-08T13:09:19.645Z,40.41
2019-01-08T13:12:06.262Z,40.35
2019-01-08T13:14:37.003Z,40.58
2019-01-08T13:16:49.116Z,40.38
2019-01-08T13:19:03.699Z,40.25
2019-01-08T13:21:16.390Z,39.87
2019-01-08T13:23:56.118Z,40.52
2019-01-08T13:26:03.648Z,39.81
2019-01-08T13:28:18.743Z,40.08
2019-01-08T13:30:35.389Z,39.97
2019-01-08T13:32:42.720Z,40.62
2019-01-08T13:34:58.483Z,40.05
2019-01-08T13:37:13.580Z,39.96
2019-01-08T13:39:31.794Z,40.15
2019-01-08T13:42:03.822Z,39.52
2019-01-08T13:44:25.057Z,39.61
2019-01-08T13:46:32.924Z,39.95
2019-01-08T13:49:17.090Z,39.95
2019-01-08T13:51:40.793Z,39.60
2019-01-08T13:53:49.911Z,39.37
2019-01-08T13:55:57.765Z,40.76
2019-01-08T14:00:50.660Z,39.46
2019-01-08T14:05:48.675Z,39.33
2019-01-08T14:08:49.822Z,40.16
2019-01-08T14:10:57.178Z,39.45
2019-01-08T14:13:42.279Z,39.13
2019-01-08T14:15:37.591Z,39.68
2019-01-08T14:18:03.460Z,38.98
2019-01-08T14:20:17.906Z,39.76
2019-01-08T14:23:14.606Z,40.13
2019-01-08T14:25:24.906Z,39.26
2019-01-08T14:27:39.853Z,39.54
2019-01-08T14:29:55.668Z,39.38
2019-01-08T14:32:26.051Z,40.38
2019-01-08T14:34:44.651Z,41.10
2019-01-08T14:37:50.446Z,41.00
2019-01-08T14:40:11.587Z,40.50
2019-01-08T14:42:40.251Z,41.07
2019-01-08T14:45:15.647Z,41.18
2019-01-08T14:51:32.913Z,40.86
2019-01-08T14:53:49.608Z,41.46
2019-01-08T14:55:58.284Z,41.59
2019-01-08T14:58:35.494Z,40.49
2019-01-08T15:04:12.068Z,40.73
2019-01-08T15:06:35.820Z,40.53
2019-01-08T15:09:20.266Z,40.28
2019-01-08T15:11:39.296Z,40.81
2019-01-08T15:13:58.881Z,42.22
2019-01-08T15:17:13.626Z,41.66
2019-01-08T15:18:25.550Z,41.72
2019-01-08T15:20:45.126Z,41.90
2019-01-08T15:22:58.257Z,41.09
2019-01-08T15:25:26.144Z,41.27
2019-01-08T15:27:30.629Z,41.55
2019-01-08T15:29:46.168Z,41.27
2019-01-08T15:31:58.965Z,41.39
2019-01-08T15:34:22.014Z,40.46
2019-01-08T15:36:30.169Z,41.04
2019-01-08T15:39:03.007Z,41.97
2019-01-08T15:41:14.919Z,42.52
2019-01-08T15:43:27.480Z,41.67
2019-01-08T15:45:35.322Z,41.12
2019-01-08T15:50:34.328Z,41.71
2019-01-08T15:52:41.802Z,41.57
2019-01-08T15:54:58.267Z,41.85
2019-01-08T15:57:08.437Z,41.84
2019-01-08T15:59:19.017Z,41.67
2019-01-08T16:01:52.888Z,41.13
2019-01-08T16:04:14.492Z,40.38
2019-01-08T16:06:22.690Z,40.15
2019-01-08T16:08:34.914Z,39.95
2019-01-08T16:10:50.384Z,40.13
2019-01-08T16:13:16.125Z,39.24
2019-01-08T16:15:25.725Z,40.47
2019-01-08T16:17:36.427Z,40.50
2019-01-08T16:19:50.152Z,40.99
2019-01-08T16:22:17.348Z,40.74
2019-01-08T16:24:35.434Z,40.79
2019-01-08T16:26:59.137Z,41.36
2019-01-08T16:29:11.859Z,40.75
2019-01-08T16:31:21.323Z,41.60
2019-01-08T16:33:35.382Z,41.36
2019-01-08T16:35:42.865Z,41.48
2019-01-08T16:37:50.076Z,40.42
2019-01-08T16:40:10.145Z,40.20
2019-01-08T16:42:22.802Z,42.30
2019-01-08T16:44:53.632Z,41.58
2019-01-08T16:47:03.469Z,42.13
2019-01-08T16:49:12.356Z,42.25
2019-01-08T16:51:19.905Z,41.33
2019-01-08T16:53:47.826Z,41.28
2019-01-08T16:55:55.627Z,40.88
2019-01-08T16:58:04.217Z,40.49
2019-01-08T17:00:40.724Z,39.96
2019-01-08T17:02:54.267Z,40.77
2019-01-08T17:05:19.966Z,40.71
2019-01-08T17:07:51.403Z,41.12
2019-01-08T17:09:50.162Z,40.96
2019-01-08T17:12:13.578Z,40.34
2019-01-08T17:14:27.483Z,40.54
2019-01-08T17:16:37.260Z,40.08
2019-01-08T17:18:45.821Z,41.02
2019-01-08T17:20:56.871Z,40.89
2019-01-08T17:23:10.548Z,40.65
2019-01-08T17:25:20.431Z,40.73
2019-01-08T17:27:35.115Z,41.21
2019-01-08T17:30:05.012Z,40.27
2019-01-08T17:32:14.010Z,41.31
2019-01-08T17:34:22.231Z,40.95
2019-01-08T17:36:29.701Z,40.71
2019-01-08T17:38:37.858Z,40.94
2019-01-08T17:40:46.009Z,40.45
2019-01-08T17:42:54.361Z,41.65
2019-01-08T17:45:02.497Z,41.21
2019-01-08T17:47:09.702Z,41.61
2019-01-08T17:49:17.529Z,40.71
2019-01-08T17:51:25.734Z,41.98
2019-01-08T17:53:33.119Z,41.06
2019-01-08T17:55:43.005Z,41.30
2019-01-08T17:57:52.463Z,40.55
2019-01-08T17:59:59.937Z,40.58
2019-01-08T18:02:14.224Z,40.93
2019-01-08T18:04:21.659Z,40.96
2019-01-08T18:06:29.836Z,41.38
2019-01-08T18:08:37.318Z,41.23
2019-01-08T18:10:44.937Z,40.36
2019-01-08T18:12:52.338Z,41.23
2019-01-08T18:15:00.284Z,40.66
2019-01-08T18:17:07.892Z,40.13
2019-01-08T18:19:15.319Z,40.57
2019-01-08T18:21:22.763Z,40.94
2019-01-08T18:23:30.140Z,41.35
2019-01-08T18:25:37.399Z,41.23
2019-01-08T18:27:44.641Z,41.56
2019-01-08T18:29:56.420Z,41.36
2019-01-08T18:32:03.787Z,41.31
2019-01-08T18:34:11.228Z,40.63
2019-01-08T18:36:18.548Z,40.27
2019-01-08T18:38:25.820Z,40.03
2019-01-08T18:40:33.189Z,39.47
2019-01-08T18:42:41.704Z,39.20
2019-01-08T18:44:48.699Z,39.19
2019-01-08T18:46:57.388Z,39.76
2019-01-08T18:49:05.123Z,39.32
2019-01-08T18:51:12.359Z,39.96
2019-01-08T18:53:19.751Z,39.16
2019-01-08T18:55:27.765Z,40.13
2019-01-08T18:57:35.072Z,40.12
2019-01-08T18:59:43.129Z,40.35
2019-01-08T19:01:58.450Z,40.35
2019-01-08T19:04:13.289Z,40.01
2019-01-08T19:06:28.399Z,39.69
2019-01-08T19:09:14.276Z,40.71
2019-01-08T19:14:03.290Z,40.95
2019-01-08T19:16:16.033Z,40.08
2019-01-08T19:18:31.760Z,41.22
2019-01-08T19:20:49.010Z,40.66
2019-01-08T19:23:00.744Z,41.27
2019-01-08T19:25:14.481Z,41.39
2019-01-08T19:27:31.055Z,41.09
2019-01-08T19:29:54.227Z,40.54
2019-01-08T19:32:22.447Z,41.25
2019-01-08T19:34:38.606Z,40.97
2019-01-08T19:36:54.293Z,40.04
2019-01-08T19:39:11.055Z,40.41
2019-01-08T19:41:23.360Z,39.86
2019-01-08T19:43:34.850Z,41.20
2019-01-08T19:45:42.559Z,40.63
2019-01-08T19:48:33.393Z,41.04
2019-01-08T19:50:48.833Z,41.06
2019-01-08T19:53:02.893Z,40.10
2019-01-08T19:55:21.400Z,39.75
2019-01-08T19:57:31.936Z,39.43
2019-01-08T19:59:54.771Z,39.12
2019-01-08T20:02:05.977Z,38.80
2019-01-08T20:04:18.327Z,38.72
2019-01-08T20:06:29.653Z,38.51
2019-01-08T20:09:11.715Z,38.30
2019-01-08T20:11:03.014Z,38.23
2019-01-08T20:13:24.946Z,38.20
2019-01-08T20:15:32.113Z,38.09
2019-01-08T20:17:45.011Z,38.19
2019-01-08T20:20:01.540Z,37.89
2019-01-08T20:22:10.667Z,37.73
2019-01-08T20:24:24.279Z,37.92
2019-01-08T20:26:38.287Z,37.67
2019-01-08T20:28:50.236Z,37.70
2019-01-08T20:31:04.329Z,37.53
2019-01-08T20:33:15.343Z,37.54
2019-01-08T20:35:28.682Z,37.62
2019-01-08T20:37:36.703Z,37.56
2019-01-08T20:39:59.247Z,37.45
2019-01-08T20:42:28.807Z,37.51
2019-01-08T20:44:45.386Z,37.96
2019-01-08T20:46:53.564Z,37.32
2019-01-08T20:49:04.111Z,36.98
2019-01-08T20:51:15.337Z,36.80
2019-01-08T20:53:28.470Z,36.38
2019-01-08T20:55:40.526Z,35.90
2019-01-08T20:57:53.734Z,36.24
2019-01-08T21:00:00.906Z,36.19
2019-01-08T21:02:11.052Z,36.26
2019-01-08T21:04:22.956Z,36.19
2019-01-08T21:06:33.935Z,36.55
2019-01-08T21:11:13.808Z,36.73
2019-01-08T21:13:28.392Z,36.53
2019-01-08T21:15:34.965Z,36.54
2019-01-08T21:17:46.869Z,36.63
2019-01-08T21:20:00.877Z,36.74
2019-01-08T21:22:12.504Z,36.74
2019-01-08T21:24:28.594Z,36.70
2019-01-08T21:26:55.094Z,36.58
2019-01-08T21:29:04.557Z,36.66
2019-01-08T21:31:18.953Z,36.46
2019-01-08T21:33:26.228Z,36.43
2019-01-08T21:35:34.009Z,36.41
2019-01-08T21:37:41.371Z,36.46
2019-01-08T21:39:48.681Z,36.41
2019-01-08T21:41:56.266Z,36.59
2019-01-08T21:44:03.647Z,36.46
2019-01-08T21:46:12.532Z,36.57
2019-01-08T21:48:19.929Z,36.70
2019-01-08T21:50:28.244Z,36.15
2019-01-08T21:52:36.140Z,36.28
2019-01-08T21:54:45.146Z,35.68
2019-01-08T21:56:54.120Z,35.25
2019-01-08T21:59:01.604Z,35.50
2019-01-08T22:01:09.024Z,35.31
2019-01-08T22:03:22.339Z,35.56
2019-01-08T22:05:32.808Z,36.10
2019-01-08T22:07:54.169Z,35.49
2019-01-08T22:10:03.948Z,35.32
2019-01-08T22:12:13.189Z,35.13
2019-01-08T22:14:20.498Z,35.49
2019-01-08T22:16:27.926Z,35.76
2019-01-08T22:18:35.408Z,35.63
2019-01-08T22:20:45.990Z,35.98
2019-01-08T22:23:00.007Z,35.66
2019-01-08T22:25:12.335Z,36.41
2019-01-08T22:27:26.106Z,35.46
2019-01-08T22:29:39.362Z,35.57
2019-01-08T22:31:52.724Z,35.54
2019-01-08T22:34:05.900Z,35.47
2019-01-08T22:36:24.668Z,35.55
2019-01-08T22:38:35.629Z,35.53
2019-01-08T22:40:50.029Z,35.47
2019-01-08T22:43:02.861Z,35.53
2019-01-08T22:45:21.022Z,35.55
2019-01-08T22:47:33.998Z,35.21
2019-01-08T22:49:51.301Z,35.61
2019-01-08T22:51:59.979Z,35.37
2019-01-08T22:54:12.517Z,35.45
2019-01-08T22:56:42.907Z,35.35
2019-01-08T22:58:58.893Z,35.40
2019-01-08T23:01:26.739Z,35.62
2019-01-08T23:03:43.492Z,35.77
2019-01-08T23:05:51.621Z,35.65
2019-01-08T23:08:00.935Z,35.52
2019-01-08T23:10:15.560Z,35.52
2019-01-08T23:12:28.243Z,35.57
2019-01-08T23:14:38.971Z,35.58
2019-01-08T23:16:46.138Z,35.88
2019-01-08T23:19:02.420Z,35.69
2019-01-08T23:21:13.209Z,35.65
2019-01-08T23:23:23.888Z,35.58
2019-01-08T23:25:34.435Z,35.66
2019-01-08T23:27:50.592Z,35.64
2019-01-08T23:30:07.502Z,35.87
2019-01-08T23:32:19.035Z,35.85
2019-01-08T23:34:30.576Z,36.09
2019-01-08T23:36:47.694Z,36.36
2019-01-08T23:39:25.943Z,36.33
2019-01-08T23:41:44.363Z,36.06
2019-01-08T23:43:57.932Z,36.05
2019-01-08T23:46:07.795Z,36.14
2019-01-08T23:48:18.099Z,35.75
2019-01-08T23:50:30.410Z,35.85
2019-01-08T23:53:16.139Z,35.75
2019-01-08T23:55:30.967Z,35.95
2019-01-08T23:57:41.700Z,36.16
